createdAt,value
2022-12-03T00:00:36.760Z,-3.78
2022-12-03T00:03:03.936Z,-3.62
2022-12-03T00:05:30.650Z,-3.72
2022-12-03T00:07:57.311Z,-3.59
2022-12-03T00:10:24.002Z,-3.63
2022-12-03T00:12:50.598Z,-3.58
2022-12-03T00:15:17.542Z,-3.63
2022-12-03T00:17:44.226Z,-3.64
2022-12-03T00:20:18.029Z,-3.52
2022-12-03T00:22:44.668Z,-3.65
2022-12-03T00:25:11.486Z,-3.48
2022-12-03T00:27:38.148Z,-3.62
2022-12-03T00:30:05.595Z,-3.62
2022-12-03T00:32:32.252Z,-3.58
2022-12-03T00:34:58.745Z,-3.58
2022-12-03T00:37:25.318Z,-3.62
2022-12-03T00:39:51.848Z,-3.67
2022-12-03T00:42:18.579Z,-3.72
2022-12-03T00:44:45.524Z,-3.79
2022-12-03T00:47:12.867Z,-3.74
2022-12-03T00:49:39.433Z,-3.68
2022-12-03T00:52:06.172Z,-3.63
2022-12-03T00:54:32.698Z,-3.75
2022-12-03T00:56:59.207Z,-3.66
2022-12-03T00:59:25.907Z,-3.71
2022-12-03T01:01:52.711Z,-3.73
2022-12-03T01:04:19.441Z,-3.74
2022-12-03T01:06:46.209Z,-3.71
2022-12-03T01:09:13.360Z,-3.71
2022-12-03T01:11:41.238Z,-3.66
2022-12-03T01:14:12.851Z,-3.72
2022-12-03T01:16:39.948Z,-3.73
2022-12-03T01:19:07.783Z,-3.80
2022-12-03T01:21:35.288Z,-3.75
2022-12-03T01:24:02.092Z,-3.69
2022-12-03T01:26:28.565Z,-3.73
2022-12-03T01:28:55.241Z,-3.62
2022-12-03T01:31:40.560Z,-3.61
2022-12-03T01:34:07.300Z,-3.62
2022-12-03T01:36:36.605Z,-3.63
2022-12-03T01:39:04.369Z,-3.58
2022-12-03T01:41:31.786Z,-3.68
2022-12-03T01:43:58.540Z,-3.60
2022-12-03T01:46:30.672Z,-3.55
2022-12-03T01:48:57.275Z,-3.69
2022-12-03T01:51:23.874Z,-3.68
2022-12-03T01:53:50.653Z,-3.75
2022-12-03T01:56:18.301Z,-3.72
2022-12-03T01:58:45.887Z,-3.72
2022-12-03T02:01:15.210Z,-3.72
2022-12-03T02:03:42.368Z,-3.69
2022-12-03T02:06:20.705Z,-3.61
2022-12-03T02:08:48.300Z,-3.63
2022-12-03T02:11:42.946Z,-3.63
2022-12-03T02:14:11.611Z,-3.59
2022-12-03T02:16:39.845Z,-3.60
2022-12-03T02:19:30.271Z,-3.61
2022-12-03T02:22:24.411Z,-3.43
2022-12-03T02:25:36.246Z,-3.45
2022-12-03T02:28:04.015Z,-3.43
2022-12-03T02:30:31.662Z,-3.44
2022-12-03T02:32:58.340Z,-3.47
2022-12-03T02:35:30.577Z,-3.43
2022-12-03T02:38:13.761Z,-3.40
2022-12-03T02:40:41.172Z,-3.45
2022-12-03T02:43:07.934Z,-3.47
2022-12-03T02:45:42.000Z,-3.55
2022-12-03T02:48:12.179Z,-3.59
2022-12-03T02:50:43.583Z,-3.45
2022-12-03T02:53:14.417Z,-3.33
2022-12-03T02:55:41.449Z,-3.28
2022-12-03T02:58:08.066Z,-3.37
2022-12-03T03:00:35.800Z,-3.36
2022-12-03T03:03:04.023Z,-3.32
2022-12-03T03:05:31.116Z,-3.33
2022-12-03T03:07:58.349Z,-3.19
2022-12-03T03:10:25.496Z,-3.38
2022-12-03T03:12:54.202Z,-3.46
2022-12-03T03:15:21.408Z,-3.38
2022-12-03T03:17:48.004Z,-3.43
2022-12-03T03:20:14.804Z,-3.36
2022-12-03T03:22:42.389Z,-3.34
2022-12-03T03:25:10.935Z,-3.33
2022-12-03T03:27:38.080Z,-3.41
2022-12-03T03:30:05.321Z,-3.49
2022-12-03T03:32:31.913Z,-3.44
2022-12-03T03:34:58.793Z,-3.39
2022-12-03T03:37:25.614Z,-3.44
2022-12-03T03:39:52.122Z,-3.52
2022-12-03T03:42:18.692Z,-3.31
2022-12-03T03:44:45.278Z,-3.46
2022-12-03T03:47:12.105Z,-3.36
2022-12-03T03:49:38.594Z,-3.53
2022-12-03T03:52:05.133Z,-3.45
2022-12-03T03:54:31.901Z,-3.29
2022-12-03T03:56:58.385Z,-3.34
2022-12-03T03:59:24.864Z,-3.36
2022-12-03T04:01:52.053Z,-3.36
2022-12-03T04:04:20.804Z,-3.47
2022-12-03T04:06:47.719Z,-3.38
2022-12-03T04:09:15.063Z,-3.40
2022-12-03T04:12:00.186Z,-3.31
2022-12-03T04:14:26.611Z,-3.31
2022-12-03T04:16:53.136Z,-3.43
2022-12-03T04:19:20.080Z,-3.47
2022-12-03T04:22:05.014Z,-3.41
2022-12-03T04:24:31.612Z,-3.46
2022-12-03T04:27:16.855Z,-3.46
2022-12-03T04:29:43.569Z,-3.38
2022-12-03T04:32:28.750Z,-3.33
2022-12-03T04:35:13.980Z,-3.40
2022-12-03T04:37:40.456Z,-3.32
2022-12-03T04:40:27.601Z,-3.29
2022-12-03T04:42:53.998Z,-3.31
2022-12-03T04:45:20.621Z,-3.27
2022-12-03T04:47:47.158Z,-3.35
2022-12-03T04:50:13.628Z,-3.27
2022-12-03T04:52:40.043Z,-3.21
2022-12-03T04:55:06.677Z,-3.27
2022-12-03T04:57:33.651Z,-3.28
2022-12-03T05:00:00.075Z,-3.21
2022-12-03T05:02:26.614Z,-3.22
2022-12-03T05:04:53.266Z,-3.24
2022-12-03T05:07:19.874Z,-3.33
2022-12-03T05:09:46.267Z,-3.29
2022-12-03T05:12:12.698Z,-3.34
2022-12-03T05:14:39.178Z,-3.42
2022-12-03T05:17:05.734Z,-3.42
2022-12-03T05:19:51.030Z,-3.27
2022-12-03T05:22:17.756Z,-3.34
2022-12-03T05:24:44.238Z,-3.34
2022-12-03T05:27:10.662Z,-3.35
2022-12-03T05:29:37.078Z,-3.27
2022-12-03T05:32:04.519Z,-3.28
2022-12-03T05:34:31.052Z,-3.22
2022-12-03T05:36:57.643Z,-3.24
2022-12-03T05:39:24.126Z,-3.20
2022-12-03T05:42:09.506Z,-3.27
2022-12-03T05:44:36.028Z,-3.26
2022-12-03T05:47:02.457Z,-3.21
2022-12-03T05:49:29.011Z,-3.25
2022-12-03T05:51:58.756Z,-3.20
2022-12-03T05:54:25.371Z,-3.12
2022-12-03T05:56:52.119Z,-3.13
2022-12-03T05:59:18.574Z,-3.13
2022-12-03T06:01:45.050Z,-3.18
2022-12-03T06:04:11.667Z,-3.11
2022-12-03T06:06:38.155Z,-2.99
2022-12-03T06:09:05.260Z,-3.00
2022-12-03T06:11:34.894Z,-3.00
2022-12-03T06:14:01.456Z,-3.11
2022-12-03T06:16:27.909Z,-3.25
2022-12-03T06:18:54.586Z,-3.15
2022-12-03T06:21:21.105Z,-3.18
2022-12-03T06:23:47.518Z,-3.13
2022-12-03T06:26:14.546Z,-3.09
2022-12-03T06:28:46.169Z,-3.03
2022-12-03T06:31:13.490Z,-2.99
2022-12-03T06:33:39.965Z,-3.01
2022-12-03T06:36:06.841Z,-3.10
2022-12-03T06:38:33.979Z,-3.08
2022-12-03T06:41:00.538Z,-2.95
2022-12-03T06:43:26.995Z,-2.94
2022-12-03T06:45:53.429Z,-3.01
2022-12-03T06:48:19.856Z,-3.00
2022-12-03T06:50:46.295Z,-3.03
2022-12-03T06:53:12.759Z,-2.98
2022-12-03T06:55:39.200Z,-2.86
2022-12-03T06:58:05.587Z,-2.93
2022-12-03T07:00:31.985Z,-2.87
2022-12-03T07:02:58.600Z,-2.79
2022-12-03T07:05:25.073Z,-2.66
2022-12-03T07:07:52.106Z,-2.78
2022-12-03T07:10:19.288Z,-2.68
2022-12-03T07:12:45.839Z,-2.80
2022-12-03T07:15:12.552Z,-2.86
2022-12-03T07:17:38.990Z,-2.83
2022-12-03T07:20:06.220Z,-2.67
2022-12-03T07:22:32.867Z,-2.68
2022-12-03T07:24:59.293Z,-2.76
2022-12-03T07:27:25.895Z,-2.73
2022-12-03T07:29:52.679Z,-2.67
2022-12-03T07:32:19.206Z,-2.55
2022-12-03T07:34:45.717Z,-2.68
2022-12-03T07:37:12.287Z,-2.77
2022-12-03T07:39:38.749Z,-2.71
2022-12-03T07:42:05.286Z,-2.66
2022-12-03T07:44:31.993Z,-2.56
2022-12-03T07:46:59.470Z,-2.64
2022-12-03T07:49:26.732Z,-2.69
2022-12-03T07:51:54.330Z,-2.56
2022-12-03T07:54:21.636Z,-2.60
2022-12-03T07:56:48.291Z,-2.49
2022-12-03T07:59:15.724Z,-2.58
2022-12-03T08:01:42.231Z,-2.51
2022-12-03T08:04:08.808Z,-2.47
2022-12-03T08:06:35.645Z,-2.67
2022-12-03T08:09:02.106Z,-2.64
2022-12-03T08:11:29.379Z,-2.69
2022-12-03T08:13:56.466Z,-2.61
2022-12-03T08:16:23.220Z,-2.53
2022-12-03T08:18:50.559Z,-2.50
2022-12-03T08:21:18.700Z,-2.76
2022-12-03T08:23:45.168Z,-2.59
2022-12-03T08:26:17.853Z,-2.51
2022-12-03T08:28:44.596Z,-2.48
2022-12-03T08:31:19.821Z,-2.44
2022-12-03T08:33:50.877Z,-2.50
2022-12-03T08:36:25.918Z,-2.41
2022-12-03T08:38:55.583Z,-2.43
2022-12-03T08:41:41.251Z,-2.42
2022-12-03T08:44:29.833Z,-2.33
2022-12-03T08:47:21.668Z,-2.39
2022-12-03T08:49:51.869Z,-2.41
2022-12-03T08:52:22.952Z,-2.39
2022-12-03T08:54:54.722Z,-2.49
2022-12-03T08:57:35.418Z,-2.34
2022-12-03T09:00:23.427Z,-2.29
2022-12-03T09:02:53.134Z,-2.42
2022-12-03T09:05:22.693Z,-2.43
2022-12-03T09:07:49.372Z,-2.22
2022-12-03T09:10:16.218Z,-2.12
2022-12-03T09:12:42.840Z,-2.08
2022-12-03T09:15:09.642Z,-1.97
2022-12-03T09:17:36.973Z,-2.03
2022-12-03T09:20:04.627Z,-1.99
2022-12-03T09:22:31.057Z,-2.10
2022-12-03T09:24:57.688Z,-2.03
2022-12-03T09:27:24.244Z,-1.98
2022-12-03T09:29:50.950Z,-1.83
2022-12-03T09:32:18.757Z,-1.86
2022-12-03T09:34:46.281Z,-1.85
2022-12-03T09:37:12.739Z,-1.81
2022-12-03T09:39:39.303Z,-1.78
2022-12-03T09:42:06.028Z,-1.85
2022-12-03T09:44:33.981Z,-1.77
2022-12-03T09:47:01.559Z,-1.73
2022-12-03T09:49:28.841Z,-1.63
2022-12-03T09:51:56.775Z,-1.57
2022-12-03T09:54:46.850Z,-1.61
2022-12-03T09:57:13.854Z,-1.53
2022-12-03T09:59:40.398Z,-1.57
2022-12-03T10:02:25.359Z,-1.66
2022-12-03T10:04:53.283Z,-1.68
2022-12-03T10:07:20.565Z,-1.42
2022-12-03T10:09:47.161Z,-1.33
2022-12-03T10:12:14.312Z,-1.31
2022-12-03T10:14:42.009Z,-1.24
2022-12-03T10:17:11.043Z,-0.99
2022-12-03T10:19:39.555Z,-0.67
2022-12-03T10:22:06.124Z,-0.87
2022-12-03T10:24:35.306Z,-0.99
2022-12-03T10:27:04.265Z,-0.85
2022-12-03T10:29:52.695Z,-0.85
2022-12-03T10:32:25.321Z,-0.93
2022-12-03T10:35:29.287Z,-0.99
2022-12-03T10:38:01.246Z,-1.06
2022-12-03T10:40:36.325Z,-1.16
2022-12-03T10:43:21.153Z,-1.02
2022-12-03T10:45:52.331Z,-1.20
2022-12-03T10:48:27.258Z,-1.19
2022-12-03T10:51:13.683Z,-1.09
2022-12-03T10:53:40.515Z,-0.98
2022-12-03T10:56:08.166Z,-0.97
2022-12-03T10:58:39.534Z,-1.02
2022-12-03T11:04:04.373Z,-1.08
2022-12-03T11:06:40.209Z,-1.04
2022-12-03T11:09:17.498Z,-1.10
2022-12-03T11:12:26.475Z,-1.08
2022-12-03T11:14:54.683Z,-1.08
2022-12-03T11:17:42.047Z,-0.97
2022-12-03T11:20:11.607Z,-0.91
2022-12-03T11:22:47.133Z,-0.96
2022-12-03T11:25:28.980Z,-1.00
2022-12-03T11:28:21.540Z,-1.07
2022-12-03T11:30:51.368Z,-1.02
2022-12-03T11:33:28.844Z,-1.09
2022-12-03T11:36:04.512Z,-1.13
2022-12-03T11:38:56.634Z,-1.03
2022-12-03T11:41:29.212Z,-1.06
2022-12-03T11:43:57.279Z,-1.14
2022-12-03T11:46:30.808Z,-1.08
2022-12-03T11:48:59.660Z,-1.00
2022-12-03T11:51:28.139Z,-0.90
2022-12-03T11:54:34.122Z,-0.94
2022-12-03T11:57:38.291Z,-0.95
2022-12-03T12:00:10.474Z,-0.89
2022-12-03T12:02:37.064Z,-0.97
2022-12-03T12:05:17.802Z,-0.92
2022-12-03T12:07:47.845Z,-0.89
2022-12-03T12:10:52.196Z,-0.82
2022-12-03T12:13:30.656Z,-0.77
2022-12-03T12:16:39.218Z,-0.75
2022-12-03T12:19:54.272Z,-0.60
2022-12-03T12:22:26.830Z,-0.70
2022-12-03T12:25:07.202Z,-0.67
2022-12-03T12:27:45.650Z,-0.68
2022-12-03T12:30:36.175Z,-0.68
2022-12-03T12:33:23.400Z,-0.61
2022-12-03T12:36:11.184Z,-0.52
2022-12-03T12:38:37.857Z,-0.59
2022-12-03T12:41:08.235Z,-0.53
2022-12-03T12:43:36.110Z,-0.43
2022-12-03T12:46:45.381Z,-0.27
2022-12-03T12:49:00.502Z,-0.04
2022-12-03T12:51:45.846Z,-0.24
2022-12-03T12:54:15.076Z,-0.25
2022-12-03T12:56:44.568Z,-0.37
2022-12-03T12:59:18.086Z,-0.27
2022-12-03T13:01:46.020Z,-0.38
2022-12-03T13:04:15.368Z,-0.51
2022-12-03T13:07:00.846Z,-0.59
2022-12-03T13:09:27.712Z,-0.55
2022-12-03T13:11:58.232Z,-0.56
2022-12-03T13:14:45.831Z,-0.55
2022-12-03T13:17:26.091Z,-0.54
2022-12-03T13:20:30.129Z,-0.60
2022-12-03T13:23:35.278Z,-0.56
2022-12-03T13:26:19.385Z,-0.56
2022-12-03T13:28:54.017Z,-0.64
2022-12-03T13:31:26.759Z,-0.59
2022-12-03T13:33:54.526Z,-0.60
2022-12-03T13:36:23.390Z,-0.57
2022-12-03T13:38:50.005Z,-0.49
2022-12-03T13:41:42.775Z,-0.50
2022-12-03T13:44:15.192Z,-0.49
2022-12-03T13:47:01.002Z,-0.55
2022-12-03T13:49:29.004Z,-0.61
2022-12-03T13:51:55.919Z,-0.55
2022-12-03T13:54:55.473Z,-0.55
2022-12-03T13:57:22.295Z,-0.51
2022-12-03T13:59:49.243Z,-0.49
2022-12-03T14:02:35.446Z,-0.53
2022-12-03T14:05:01.973Z,-0.51
2022-12-03T14:07:28.638Z,-0.53
2022-12-03T14:09:55.486Z,-0.57
2022-12-03T14:12:35.599Z,-0.46
2022-12-03T14:15:11.671Z,-0.50
2022-12-03T14:17:38.203Z,-0.47
2022-12-03T14:20:05.392Z,-0.55
2022-12-03T14:22:49.332Z,-0.54
2022-12-03T14:25:18.529Z,-0.57
2022-12-03T14:27:45.110Z,-0.58
2022-12-03T14:30:12.297Z,-0.56
2022-12-03T14:32:38.808Z,-0.55
2022-12-03T14:35:09.909Z,-0.51
2022-12-03T14:37:37.010Z,-0.50
2022-12-03T14:40:07.107Z,-0.46
2022-12-03T14:42:39.799Z,-0.45
2022-12-03T14:45:07.055Z,-0.50
2022-12-03T14:47:36.007Z,-0.50
2022-12-03T14:50:05.163Z,-0.51
2022-12-03T14:52:45.228Z,-0.53
2022-12-03T14:55:19.137Z,-0.59
2022-12-03T14:57:45.755Z,-0.65
2022-12-03T15:00:12.722Z,-0.55
2022-12-03T15:02:39.380Z,-0.58
2022-12-03T15:05:06.531Z,-0.61
2022-12-03T15:07:35.628Z,-0.51
2022-12-03T15:10:02.363Z,-0.58
2022-12-03T15:12:28.833Z,-0.62
2022-12-03T15:14:55.311Z,-0.56
2022-12-03T15:18:18.080Z,-0.57
2022-12-03T15:20:44.916Z,-0.39
2022-12-03T15:23:14.526Z,-0.31
2022-12-03T15:25:41.395Z,-0.49
2022-12-03T15:28:08.399Z,-0.44
2022-12-03T15:30:37.913Z,-0.41
2022-12-03T15:33:13.873Z,-0.41
2022-12-03T15:35:42.866Z,-0.40
2022-12-03T15:43:54.610Z,-0.43
2022-12-03T15:46:21.614Z,-0.30
2022-12-03T15:49:12.462Z,-0.36
2022-12-03T16:00:29.194Z,-0.46
2022-12-03T16:02:55.631Z,-0.39
2022-12-03T16:05:27.412Z,-0.34
2022-12-03T16:07:53.915Z,-0.37
2022-12-03T16:10:21.623Z,-0.34
2022-12-03T16:12:49.899Z,-0.44
2022-12-03T16:15:19.861Z,-0.47
2022-12-03T16:17:49.847Z,-0.41
2022-12-03T16:20:30.325Z,-0.37
2022-12-03T16:22:58.982Z,-0.43
2022-12-03T16:25:25.438Z,-0.40
2022-12-03T16:27:59.703Z,-0.25
2022-12-03T16:30:39.002Z,-0.25
2022-12-03T16:33:33.509Z,-0.33
2022-12-03T16:36:20.995Z,-0.29
2022-12-03T16:38:51.475Z,-0.36
2022-12-03T16:41:20.234Z,-0.36
2022-12-03T16:43:48.601Z,-0.37
2022-12-03T16:46:15.178Z,-0.35
2022-12-03T16:48:42.090Z,-0.40
2022-12-03T16:51:08.927Z,-0.43
2022-12-03T16:53:35.598Z,-0.52
2022-12-03T16:56:02.538Z,-0.44
2022-12-03T16:58:29.079Z,-0.30
2022-12-03T17:00:55.642Z,-0.40
2022-12-03T17:03:22.785Z,-0.51
2022-12-03T17:05:49.488Z,-0.50
2022-12-03T17:08:16.477Z,-0.46
2022-12-03T17:10:43.893Z,-0.45
2022-12-03T17:13:10.942Z,-0.47
2022-12-03T17:15:38.163Z,-0.51
2022-12-03T17:18:05.146Z,-0.36
2022-12-03T17:20:33.106Z,-0.45
2022-12-03T17:22:59.975Z,-0.42
2022-12-03T17:25:27.075Z,-0.25
2022-12-03T17:27:53.642Z,-0.33
2022-12-03T17:30:20.632Z,-0.38
2022-12-03T17:32:48.752Z,-0.33
2022-12-03T17:35:15.175Z,-0.35
2022-12-03T17:37:41.626Z,-0.37
2022-12-03T17:40:11.735Z,-0.26
2022-12-03T17:42:38.184Z,-0.20
2022-12-03T17:45:05.168Z,-0.10
2022-12-03T17:47:31.588Z,-0.29
2022-12-03T17:49:58.074Z,-0.15
2022-12-03T17:52:24.538Z,-0.17
2022-12-03T17:57:37.420Z,-0.27
2022-12-03T18:00:04.463Z,-0.18
2022-12-03T18:02:30.911Z,-0.18
2022-12-03T18:04:57.335Z,-0.11
2022-12-03T18:07:23.769Z,-0.16
2022-12-03T18:09:50.404Z,-0.23
2022-12-03T18:12:16.995Z,-0.22
2022-12-03T18:14:43.509Z,-0.31
2022-12-03T18:17:10.029Z,-0.33
2022-12-03T18:19:36.494Z,-0.28
2022-12-03T18:22:02.998Z,-0.25
2022-12-03T18:24:29.460Z,-0.29
2022-12-03T18:26:55.994Z,-0.33
2022-12-03T18:29:22.442Z,-0.31
2022-12-03T18:31:49.022Z,-0.34
2022-12-03T18:34:15.480Z,-0.32
2022-12-03T18:36:42.182Z,-0.24
2022-12-03T18:39:18.782Z,-0.27
2022-12-03T18:41:45.243Z,-0.21
2022-12-03T18:44:11.732Z,-0.23
2022-12-03T18:46:52.954Z,-0.19
2022-12-03T18:49:20.524Z,-0.25
2022-12-03T18:51:48.305Z,-0.19
2022-12-03T18:54:15.066Z,-0.02
2022-12-03T18:56:41.520Z,-0.06
2022-12-03T18:59:08.164Z,-0.14
2022-12-03T19:01:35.421Z,-0.10
2022-12-03T19:04:02.288Z,-0.15
2022-12-03T19:06:30.404Z,-0.14
2022-12-03T19:08:57.233Z,-0.08
2022-12-03T19:11:23.937Z,-0.12
2022-12-03T19:13:51.270Z,-0.05
2022-12-03T19:16:17.827Z,0.04
2022-12-03T19:18:44.577Z,-0.08
2022-12-03T19:21:14.289Z,-0.07
2022-12-03T19:23:40.941Z,-0.10
2022-12-03T19:26:09.566Z,-0.02
2022-12-03T19:28:36.328Z,-0.10
2022-12-03T19:31:08.613Z,-0.16
2022-12-03T19:33:35.904Z,-0.09
2022-12-03T19:36:04.325Z,-0.11
2022-12-03T19:38:31.421Z,-0.13
2022-12-03T19:41:00.498Z,-0.15
2022-12-03T19:43:27.030Z,-0.16
2022-12-03T19:45:54.532Z,-0.02
2022-12-03T19:48:22.893Z,-0.09
2022-12-03T19:51:02.990Z,-0.06
2022-12-03T19:53:38.095Z,-0.05
2022-12-03T19:56:10.240Z,-0.02
2022-12-03T19:58:37.489Z,-0.05
2022-12-03T20:01:08.988Z,-0.03
2022-12-03T20:03:39.701Z,0.05
2022-12-03T20:06:06.687Z,0.02
2022-12-03T20:08:37.083Z,-0.03
2022-12-03T20:11:10.838Z,-0.02
2022-12-03T20:13:37.601Z,-0.03
2022-12-03T20:16:05.791Z,0.11
2022-12-03T20:18:32.915Z,0.09
2022-12-03T20:21:00.344Z,0.05
2022-12-03T20:23:27.166Z,-0.01
2022-12-03T20:25:53.744Z,-0.01
2022-12-03T20:28:20.283Z,-0.05
2022-12-03T20:30:57.527Z,-0.09
2022-12-03T20:33:24.126Z,-0.03
2022-12-03T20:35:54.507Z,-0.02
2022-12-03T20:38:24.383Z,-0.05
2022-12-03T20:40:50.888Z,-0.05
2022-12-03T20:43:17.628Z,-0.02
2022-12-03T20:45:44.307Z,-0.05
2022-12-03T20:48:11.589Z,0.08
2022-12-03T20:50:38.965Z,0.01
2022-12-03T20:53:23.679Z,0.05
2022-12-03T20:55:58.309Z,0.04
2022-12-03T20:58:24.978Z,0.04
2022-12-03T21:00:51.579Z,-0.02
2022-12-03T21:03:18.095Z,0.05
2022-12-03T21:05:44.630Z,-0.04
2022-12-03T21:08:12.185Z,-0.12
2022-12-03T21:10:46.871Z,-0.11
2022-12-03T21:13:15.530Z,-0.11
2022-12-03T21:15:42.683Z,-0.15
2022-12-03T21:18:14.591Z,-0.14
2022-12-03T21:20:44.346Z,-0.15
2022-12-03T21:23:11.460Z,-0.16
2022-12-03T21:25:38.427Z,-0.22
2022-12-03T21:28:06.529Z,-0.22
2022-12-03T21:30:33.843Z,-0.27
2022-12-03T21:33:00.510Z,-0.24
2022-12-03T21:35:27.044Z,-0.25
2022-12-03T21:37:53.559Z,-0.21
2022-12-03T21:40:20.273Z,-0.22
2022-12-03T21:42:46.970Z,-0.17
2022-12-03T21:45:13.850Z,-0.24
2022-12-03T21:47:40.676Z,-0.30
2022-12-03T21:50:11.184Z,-0.32
2022-12-03T21:52:37.650Z,-0.30
2022-12-03T21:55:04.521Z,-0.27
2022-12-03T21:57:31.363Z,-0.28
2022-12-03T21:59:58.057Z,-0.34
2022-12-03T22:02:24.972Z,-0.33
2022-12-03T22:04:51.583Z,-0.26
2022-12-03T22:07:18.347Z,-0.37
2022-12-03T22:09:44.847Z,-0.38
2022-12-03T22:12:11.432Z,-0.35
2022-12-03T22:14:37.957Z,-0.31
2022-12-03T22:17:04.382Z,-0.32
2022-12-03T22:19:30.816Z,-0.32
2022-12-03T22:21:57.259Z,-0.34
2022-12-03T22:24:24.184Z,-0.34
2022-12-03T22:26:52.224Z,-0.29
2022-12-03T22:29:18.671Z,-0.31
2022-12-03T22:31:45.270Z,-0.24
2022-12-03T22:34:11.950Z,-0.36
2022-12-03T22:36:38.472Z,-0.32
2022-12-03T22:39:05.168Z,-0.30
2022-12-03T22:41:31.730Z,-0.40
2022-12-03T22:43:58.179Z,-0.43
2022-12-03T22:46:24.858Z,-0.46
2022-12-03T22:48:51.469Z,-0.45
2022-12-03T22:51:20.447Z,-0.40
2022-12-03T22:53:47.547Z,-0.36
2022-12-03T22:56:14.419Z,-0.44
2022-12-03T22:58:41.251Z,-0.34
2022-12-03T23:01:08.133Z,-0.44
2022-12-03T23:03:36.268Z,-0.49
2022-12-03T23:06:09.214Z,-0.49
2022-12-03T23:08:35.813Z,-0.44
2022-12-03T23:11:02.300Z,-0.44
2022-12-03T23:13:28.776Z,-0.50
2022-12-03T23:15:55.352Z,-0.55
2022-12-03T23:18:22.085Z,-0.51
2022-12-03T23:20:53.081Z,-0.52
2022-12-03T23:23:21.119Z,-0.52
2022-12-03T23:25:58.668Z,-0.52
2022-12-03T23:28:25.522Z,-0.48
2022-12-03T23:30:52.152Z,-0.49
2022-12-03T23:33:18.818Z,-0.51
2022-12-03T23:35:45.253Z,-0.53
2022-12-03T23:38:11.732Z,-0.57
2022-12-03T23:40:42.258Z,-0.61
2022-12-03T23:43:11.353Z,-0.60
2022-12-03T23:45:38.081Z,-0.57
2022-12-03T23:48:04.635Z,-0.58
2022-12-03T23:50:31.375Z,-0.62
2022-12-03T23:52:57.964Z,-0.58
2022-12-03T23:55:24.523Z,-0.61
2022-12-03T23:57:51.267Z,-0.53
